createdAt,value
2023-05-09T00:04:57.773Z,40.28
2023-05-09T00:10:02.023Z,41.15
2023-05-09T00:15:08.161Z,42.90
2023-05-09T00:20:12.503Z,44.20
2023-05-09T00:25:17.126Z,48.78
2023-05-09T00:30:22.265Z,49.95
2023-05-09T00:35:25.305Z,51.67
2023-05-09T00:40:53.029Z,49.10
2023-05-09T00:45:56.328Z,47.63
2023-05-09T00:51:00.038Z,52.03
2023-05-09T00:56:06.940Z,56.10
2023-05-09T01:01:10.285Z,56.30
2023-05-09T01:06:18.914Z,54.40
2023-05-09T01:11:30.711Z,58.58
2023-05-09T01:16:38.104Z,57.45
2023-05-09T01:21:42.049Z,57.20
2023-05-09T01:26:59.565Z,60.05
2023-05-09T01:32:06.206Z,60.03
2023-05-09T01:37:10.848Z,55.88
2023-05-09T01:42:14.312Z,54.47
2023-05-09T01:47:19.482Z,51.90
2023-05-09T01:52:23.085Z,51.33
2023-05-09T01:57:25.972Z,51.22
2023-05-09T02:02:30.389Z,49.67
2023-05-09T02:07:33.564Z,51.83
2023-05-09T02:12:36.478Z,51.17
2023-05-09T02:17:40.716Z,52.63
2023-05-09T02:22:45.041Z,48.40
2023-05-09T02:27:48.053Z,50.03
2023-05-09T02:32:54.917Z,50.50
2023-05-09T02:38:00.708Z,49.20
2023-05-09T02:43:05.049Z,48.75
2023-05-09T02:48:09.857Z,48.08
2023-05-09T02:53:12.949Z,46.78
2023-05-09T02:58:17.493Z,48.63
2023-05-09T03:03:23.362Z,46.83
2023-05-09T03:08:27.712Z,47.55
2023-05-09T03:13:31.102Z,48.10
2023-05-09T03:18:36.318Z,47.80
2023-05-09T03:23:39.836Z,46.47
2023-05-09T03:28:42.675Z,47.17
2023-05-09T03:33:47.033Z,47.60
2023-05-09T03:38:51.045Z,43.50
2023-05-09T03:43:56.775Z,41.75
2023-05-09T03:49:01.040Z,40.92
2023-05-09T03:54:06.020Z,40.57
2023-05-09T03:59:09.024Z,38.60
2023-05-09T04:04:13.584Z,38.93
2023-05-09T04:09:16.989Z,36.13
2023-05-09T04:14:21.777Z,37.13
2023-05-09T04:19:26.038Z,34.78
2023-05-09T04:24:28.913Z,33.35
2023-05-09T04:29:32.337Z,35.33
2023-05-09T04:34:36.949Z,34.20
2023-05-09T04:39:47.774Z,31.93
2023-05-09T04:44:59.819Z,30.83
2023-05-09T04:50:06.679Z,31.40
2023-05-09T04:55:10.320Z,31.55
2023-05-09T05:00:18.601Z,28.20
2023-05-09T05:05:25.772Z,26.20
2023-05-09T05:10:31.374Z,25.83
2023-05-09T05:15:42.980Z,23.23
2023-05-09T05:20:48.074Z,20.73
2023-05-09T05:25:50.896Z,21.95
2023-05-09T05:30:53.850Z,21.00
2023-05-09T05:35:58.013Z,18.77
2023-05-09T05:41:00.992Z,20.17
2023-05-09T05:46:06.455Z,19.98
2023-05-09T05:51:11.995Z,16.70
2023-05-09T05:56:17.330Z,16.87
2023-05-09T06:01:20.523Z,17.27
2023-05-09T06:06:24.807Z,17.50
2023-05-09T06:11:27.761Z,17.80
2023-05-09T06:16:30.763Z,17.67
2023-05-09T06:21:35.208Z,18.33
2023-05-09T06:26:38.507Z,17.20
2023-05-09T06:31:41.428Z,17.50
2023-05-09T06:36:45.617Z,17.92
2023-05-09T06:41:48.425Z,18.77
2023-05-09T06:46:59.996Z,20.08
2023-05-09T06:52:04.253Z,19.92
2023-05-09T06:57:07.079Z,20.15
2023-05-09T07:02:09.883Z,20.00
2023-05-09T07:07:13.941Z,20.08
2023-05-09T07:12:16.952Z,20.35
2023-05-09T07:17:23.558Z,23.90
2023-05-09T07:22:30.683Z,21.87
2023-05-09T07:27:34.494Z,20.98
2023-05-09T07:32:37.420Z,22.52
2023-05-09T07:37:41.648Z,23.25
2023-05-09T07:42:49.374Z,21.65
2023-05-09T07:47:52.394Z,23.50
2023-05-09T07:52:56.723Z,21.77
2023-05-09T07:57:59.513Z,20.60
2023-05-09T08:03:02.342Z,18.63
2023-05-09T08:08:07.880Z,17.40
2023-05-09T08:13:10.779Z,17.55
2023-05-09T08:18:13.594Z,15.98
2023-05-09T08:23:17.682Z,14.82
2023-05-09T08:28:22.033Z,14.23
2023-05-09T08:33:25.839Z,13.97
2023-05-09T08:38:30.211Z,12.48
2023-05-09T08:43:34.684Z,13.53
2023-05-09T08:48:38.600Z,12.45
2023-05-09T08:53:44.116Z,14.23
2023-05-09T08:58:47.091Z,14.20
2023-05-09T09:03:50.232Z,14.87
2023-05-09T09:08:56.114Z,14.33
2023-05-09T09:14:02.884Z,14.80
2023-05-09T09:19:06.696Z,17.30
2023-05-09T09:24:12.879Z,16.63
2023-05-09T09:29:16.868Z,17.60
2023-05-09T09:34:22.371Z,17.05
2023-05-09T09:39:26.593Z,18.20
2023-05-09T09:44:31.050Z,21.27
2023-05-09T09:49:33.869Z,21.73
2023-05-09T09:54:39.717Z,22.08
2023-05-09T09:59:42.593Z,20.67
2023-05-09T10:04:45.609Z,22.35
2023-05-09T10:09:49.882Z,21.33
2023-05-09T10:14:52.877Z,20.63
2023-05-09T10:19:56.542Z,18.90
2023-05-09T10:25:04.406Z,19.00
2023-05-09T10:30:10.424Z,19.13
2023-05-09T10:35:17.117Z,18.38
2023-05-09T10:40:21.609Z,19.40
2023-05-09T10:45:24.768Z,18.80
2023-05-09T10:50:27.666Z,17.98
2023-05-09T10:55:39.174Z,16.38
2023-05-09T11:00:42.547Z,17.87
2023-05-09T11:05:45.319Z,20.38
2023-05-09T11:10:49.746Z,19.50
2023-05-09T11:16:06.364Z,19.55
2023-05-09T11:21:09.852Z,20.13
2023-05-09T11:26:15.959Z,19.08
2023-05-09T11:31:19.970Z,20.30
2023-05-09T11:36:25.595Z,20.10
2023-05-09T11:41:30.292Z,20.88
2023-05-09T11:46:33.178Z,20.50
2023-05-09T11:51:37.356Z,21.40
2023-05-09T11:56:42.031Z,18.97
2023-05-09T12:01:44.936Z,21.05
2023-05-09T12:06:48.606Z,21.05
2023-05-09T12:11:53.004Z,20.02
2023-05-09T12:16:55.865Z,20.88
2023-05-09T12:21:59.167Z,19.60
2023-05-09T12:27:03.513Z,22.73
2023-05-09T12:32:07.003Z,21.60
2023-05-09T12:37:16.010Z,21.08
2023-05-09T12:42:20.237Z,21.65
2023-05-09T12:47:23.205Z,21.20
2023-05-09T12:52:26.912Z,21.65
2023-05-09T12:57:31.632Z,22.20
2023-05-09T13:02:38.776Z,24.03
2023-05-09T13:07:42.382Z,21.03
2023-05-09T13:12:48.264Z,20.63
2023-05-09T13:17:52.103Z,19.73
2023-05-09T13:22:55.019Z,20.25
2023-05-09T13:27:59.208Z,19.27
2023-05-09T13:33:16.562Z,19.33
2023-05-09T13:38:25.571Z,20.07
2023-05-09T13:43:29.813Z,18.58
2023-05-09T13:48:32.605Z,18.52
2023-05-09T13:53:37.363Z,21.90
2023-05-09T13:58:42.981Z,21.88
2023-05-09T14:03:47.231Z,22.80
2023-05-09T14:08:50.190Z,20.52
2023-05-09T14:13:54.562Z,21.15
2023-05-09T14:18:57.660Z,19.55
2023-05-09T14:24:00.605Z,16.50
2023-05-09T14:29:06.119Z,14.60
2023-05-09T14:34:09.311Z,13.98
2023-05-09T14:39:12.552Z,17.20
2023-05-09T14:44:16.683Z,21.27
2023-05-09T14:49:19.445Z,21.55
2023-05-09T14:54:22.326Z,22.27
2023-05-09T14:59:26.574Z,22.20
2023-05-09T15:04:31.014Z,20.98
2023-05-09T15:09:34.179Z,22.80
2023-05-09T15:14:39.522Z,23.17
2023-05-09T15:19:42.513Z,19.77
2023-05-09T15:24:45.309Z,18.63
2023-05-09T15:29:49.464Z,15.27
2023-05-09T15:34:52.336Z,17.87
2023-05-09T15:39:55.170Z,17.95
2023-05-09T15:44:59.374Z,17.98
2023-05-09T15:50:02.281Z,17.73
2023-05-09T15:55:05.728Z,19.17
2023-05-09T16:00:11.317Z,16.90
2023-05-09T16:05:17.108Z,17.87
2023-05-09T16:10:20.012Z,18.90
2023-05-09T16:15:24.587Z,11.38
2023-05-09T16:20:27.460Z,9.32
2023-05-09T16:25:30.793Z,9.10
2023-05-09T16:30:36.281Z,9.00
2023-05-09T16:35:40.036Z,8.13
2023-05-09T16:40:42.852Z,7.70
2023-05-09T16:45:47.911Z,8.53
2023-05-09T16:50:53.631Z,9.00
2023-05-09T16:55:56.918Z,7.05
2023-05-09T17:01:02.229Z,6.90
2023-05-09T17:06:05.397Z,5.68
2023-05-09T17:11:10.033Z,6.60
2023-05-09T17:16:14.317Z,7.43
2023-05-09T17:21:18.064Z,8.35
2023-05-09T17:26:21.299Z,6.90
2023-05-09T17:31:25.558Z,5.78
2023-05-09T17:36:30.079Z,6.28
2023-05-09T17:41:32.965Z,6.53
2023-05-09T17:46:37.279Z,8.03
2023-05-09T17:51:40.090Z,8.95
2023-05-09T17:56:42.910Z,8.30
2023-05-09T18:01:47.170Z,8.13
2023-05-09T18:06:50.443Z,8.77
2023-05-09T18:11:53.523Z,11.50
2023-05-09T18:16:57.689Z,9.85
2023-05-09T18:22:00.540Z,10.60
2023-05-09T18:27:04.281Z,9.90
2023-05-09T18:32:08.522Z,8.93
2023-05-09T18:37:11.570Z,9.80
2023-05-09T18:42:16.357Z,10.93
2023-05-09T18:47:20.754Z,12.30
2023-05-09T18:52:23.535Z,13.67
2023-05-09T18:57:26.586Z,13.90
2023-05-09T19:02:31.048Z,13.65
2023-05-09T19:07:34.342Z,15.07
2023-05-09T19:12:37.505Z,15.45
2023-05-09T19:17:41.713Z,14.82
2023-05-09T19:22:48.132Z,13.57
2023-05-09T19:27:52.606Z,15.73
2023-05-09T19:32:56.784Z,19.07
2023-05-09T19:37:59.631Z,19.73
2023-05-09T19:43:02.408Z,19.15
2023-05-09T19:48:07.096Z,21.60
2023-05-09T19:53:10.396Z,22.70
2023-05-09T19:58:14.003Z,25.60
2023-05-09T20:03:19.133Z,28.20
2023-05-09T20:08:22.101Z,30.73
2023-05-09T20:13:25.047Z,32.07
2023-05-09T20:18:29.480Z,30.98
2023-05-09T20:23:32.472Z,33.72
2023-05-09T20:28:35.478Z,35.47
2023-05-09T20:33:40.880Z,33.67
2023-05-09T20:38:43.851Z,19.63
2023-05-09T20:43:47.137Z,15.18
2023-05-09T20:48:51.654Z,15.70
2023-05-09T20:53:54.574Z,14.43
2023-05-09T20:58:59.834Z,15.88
2023-05-09T21:04:05.709Z,18.15
2023-05-09T21:09:09.018Z,19.95
2023-05-09T21:14:11.934Z,21.33
2023-05-09T21:19:16.281Z,21.95
2023-05-09T21:24:19.262Z,21.50
2023-05-09T21:29:22.348Z,21.98
2023-05-09T21:34:26.750Z,20.67
2023-05-09T21:39:30.393Z,21.08
2023-05-09T21:44:34.330Z,21.70
2023-05-09T21:49:38.717Z,25.05
2023-05-09T21:54:41.650Z,29.50
2023-05-09T21:59:45.253Z,34.40
2023-05-09T22:04:49.417Z,35.80
2023-05-09T22:09:52.913Z,38.87
2023-05-09T22:14:56.902Z,40.67
2023-05-09T22:20:02.279Z,45.42
2023-05-09T22:25:05.537Z,45.90
2023-05-09T22:30:12.292Z,48.65
2023-05-09T22:35:16.661Z,49.85
2023-05-09T22:40:19.491Z,49.58
2023-05-09T22:45:22.392Z,51.92
2023-05-09T22:50:26.739Z,56.78
2023-05-09T22:55:29.735Z,57.90
2023-05-09T23:00:32.621Z,52.87
2023-05-09T23:05:36.986Z,55.57
2023-05-09T23:10:39.741Z,57.22
2023-05-09T23:15:42.563Z,62.38
2023-05-09T23:20:47.084Z,62.35
2023-05-09T23:25:49.901Z,65.20
2023-05-09T23:30:52.869Z,69.20
2023-05-09T23:35:57.575Z,71.85
2023-05-09T23:41:01.272Z,72.57
2023-05-09T23:46:04.318Z,73.80
2023-05-09T23:51:08.654Z,73.55
2023-05-09T23:56:11.524Z,77.03
